Time;durP1;ratioP1;P1;durP2;ratioP2;P2;SDS_P1;SDS_P2;PMS_P1;PMS_P2;Temp;Humidity;BMP_temperature;BMP_pressure;BME280_temperature;BME280_humidity;BME280_pressure;Samples;Min_cycle;Max_cycle;Signal;HPM_P1;HPM_P2
2022/12/05 00:01:14;;;;;;;;;;;5.00;99.90;;;;;;5065922;28;19928;-78
2022/12/05 00:03:40;;;;;;;;;;;5.00;99.90;;;;;;5063305;28;19978;-77
2022/12/05 00:06:06;;;;;;;;;;;4.90;99.90;;;;;;5063740;28;19972;-77
2022/12/05 00:08:31;;;;;;;;;;;4.90;99.90;;;;;;5062468;28;19921;-78
2022/12/05 00:10:57;;;;;;;;;;;4.80;99.90;;;;;;5062928;28;19921;-77
2022/12/05 00:13:22;;;;;;;;;;;5.40;99.90;;;;;;5062813;28;19928;-77
2022/12/05 00:15:48;;;;;;;;;;;4.90;99.90;;;;;;5063396;28;20453;-77
2022/12/05 00:18:13;;;;;;;;;;;4.90;99.90;;;;;;5063328;28;19987;-77
2022/12/05 00:20:45;;;;;;;;;;;4.90;99.90;;;;;;5061028;28;19921;-77
2022/12/05 00:23:11;;;;;;;;;;;4.90;99.90;;;;;;5065320;28;19928;-77
2022/12/05 00:25:36;;;;;;;;;;;4.90;99.90;;;;;;5062126;28;19927;-78
2022/12/05 00:28:08;;;;;;;;;;;4.90;99.90;;;;;;5063521;28;19943;-77
2022/12/05 00:30:33;;;;;;;;;;;4.90;99.90;;;;;;5062492;28;19921;-77
2022/12/05 00:32:59;;;;;;;;;;;4.90;99.90;;;;;;5064209;28;20349;-77
2022/12/05 00:35:27;;;;;;;;;;;4.90;99.90;;;;;;5065245;28;19928;-77
2022/12/05 00:37:53;;;;;;;;;;;6.50;99.90;;;;;;5062611;28;20371;-77
2022/12/05 00:40:18;;;;;;;;;;;4.90;99.90;;;;;;5063493;28;19928;-78
2022/12/05 00:42:44;;;;;;;;;;;4.90;99.90;;;;;;5066192;28;19920;-78
2022/12/05 00:45:09;;;;;;;;;;;4.90;99.90;;;;;;5062863;28;19947;-78
2022/12/05 00:47:35;;;;;;;;;;;4.90;99.90;;;;;;5060150;28;19928;-78
2022/12/05 00:50:02;;;;;;;;;;;4.90;99.90;;;;;;5064956;28;19920;-78
2022/12/05 00:52:27;;;;;;;;;;;4.90;99.90;;;;;;5062563;28;20345;-78
2022/12/05 00:54:52;;;;;;;;;;;4.90;99.90;;;;;;5061362;28;20016;-77
2022/12/05 00:57:18;;;;;;;;;;;5.00;99.90;;;;;;5062421;28;19916;-77
2022/12/05 00:59:44;;;;;;;;;;;5.10;99.90;;;;;;5062221;28;19920;-77
2022/12/05 01:02:09;;;;;;;;;;;5.10;99.90;;;;;;5061489;28;20369;-77
2022/12/05 01:04:37;;;;;;;;;;;5.10;99.90;;;;;;5064450;28;19921;-77
2022/12/05 01:07:03;;;;;;;;;;;5.10;99.90;;;;;;5061639;28;20418;-77
2022/12/05 01:09:29;;;;;;;;;;;5.20;99.90;;;;;;5064140;28;19920;-77
2022/12/05 01:11:54;;;;;;;;;;;5.90;99.90;;;;;;5062201;28;19998;-77
2022/12/05 01:14:21;;;;;;;;;;;5.90;99.90;;;;;;5061732;28;19921;-77
2022/12/05 01:16:48;;;;;;;;;;;5.10;99.90;;;;;;5062921;28;19921;-77
2022/12/05 01:19:15;;;;;;;;;;;5.20;99.90;;;;;;5061033;28;19921;-77
2022/12/05 01:21:40;;;;;;;;;;;5.10;99.90;;;;;;5080897;28;19999;-77
2022/12/05 01:24:06;;;;;;;;;;;5.10;99.90;;;;;;5062248;28;20024;-77
2022/12/05 01:26:35;;;;;;;;;;;5.10;99.90;;;;;;5065823;28;20012;-77
2022/12/05 01:29:00;;;;;;;;;;;5.30;99.90;;;;;;5062784;28;19974;-77
2022/12/05 01:31:28;;;;;;;;;;;5.10;99.90;;;;;;5061225;28;19924;-77
2022/12/05 01:33:55;;;;;;;;;;;5.10;99.90;;;;;;5064267;28;20644;-77
2022/12/05 01:36:22;;;;;;;;;;;5.10;99.90;;;;;;5060805;28;19921;-77
2022/12/05 01:38:48;;;;;;;;;;;5.20;99.90;;;;;;5062767;28;19923;-77
2022/12/05 01:41:15;;;;;;;;;;;5.20;99.90;;;;;;5061569;28;19946;-76
2022/12/05 01:43:54;;;;;;;;;;;5.10;99.90;;;;;;5062383;28;20363;-77
2022/12/05 01:46:19;;;;;;;;;;;5.10;99.90;;;;;;5061222;28;19964;-77
2022/12/05 01:48:45;;;;;;;;;;;5.20;99.90;;;;;;5063570;28;19970;-77
2022/12/05 01:51:11;;;;;;;;;;;5.20;99.90;;;;;;5060272;28;20023;-77
2022/12/05 01:53:36;;;;;;;;;;;5.20;99.90;;;;;;5060952;28;20376;-77
2022/12/05 01:56:02;;;;;;;;;;;5.20;99.90;;;;;;5061521;28;19959;-77
2022/12/05 01:58:30;;;;;;;;;;;5.20;99.90;;;;;;5061034;28;19921;-77
2022/12/05 02:00:56;;;;;;;;;;;5.20;99.90;;;;;;5061833;28;19942;-78
2022/12/05 02:03:22;;;;;;;;;;;5.20;99.90;;;;;;5061004;28;19924;-77
2022/12/05 02:05:48;;;;;;;;;;;5.20;99.90;;;;;;5062822;28;19928;-77
2022/12/05 02:08:14;;;;;;;;;;;5.20;99.90;;;;;;5059363;28;19928;-77
2022/12/05 02:10:46;;;;;;;;;;;5.20;99.90;;;;;;5067481;28;20003;-77
2022/12/05 02:13:15;;;;;;;;;;;5.20;99.90;;;;;;5059938;28;19929;-77
2022/12/05 02:16:00;;;;;;;;;;;5.20;99.90;;;;;;5063429;28;20436;-77
2022/12/05 02:18:26;;;;;;;;;;;5.20;99.90;;;;;;5059656;28;19920;-77
2022/12/05 02:21:20;;;;;;;;;;;5.20;99.90;;;;;;5063065;28;19927;-77
2022/12/05 02:23:45;;;;;;;;;;;5.30;99.90;;;;;;5060032;28;20395;-76
2022/12/05 02:26:30;;;;;;;;;;;5.30;99.90;;;;;;5063412;28;20013;-77
2022/12/05 02:29:01;;;;;;;;;;;5.30;99.90;;;;;;5058313;28;20062;-77
2022/12/05 02:31:37;;;;;;;;;;;5.30;99.90;;;;;;5064639;28;19982;-77
2022/12/05 02:34:09;;;;;;;;;;;5.30;99.90;;;;;;5064337;28;19928;-77
2022/12/05 02:36:40;;;;;;;;;;;5.40;99.90;;;;;;5067110;28;19976;-77
2022/12/05 02:39:10;;;;;;;;;;;5.40;99.90;;;;;;5064141;28;19925;-77
2022/12/05 02:41:39;;;;;;;;;;;5.40;99.90;;;;;;5066882;28;19921;-77
2022/12/05 02:44:08;;;;;;;;;;;5.40;99.90;;;;;;5063539;28;20383;-77
2022/12/05 02:46:36;;;;;;;;;;;5.50;99.90;;;;;;5064893;28;20287;-77
2022/12/05 02:49:04;;;;;;;;;;;5.50;99.90;;;;;;5064733;28;19920;-78
2022/12/05 02:51:33;;;;;;;;;;;5.50;99.90;;;;;;5066399;28;19921;-77
2022/12/05 02:54:01;;;;;;;;;;;5.50;99.90;;;;;;5064177;28;19927;-77
2022/12/05 02:56:28;;;;;;;;;;;5.50;99.90;;;;;;5064653;28;19921;-76
2022/12/05 02:58:54;;;;;;;;;;;7.10;99.90;;;;;;5066270;28;20402;-77
2022/12/05 03:01:21;;;;;;;;;;;5.50;99.90;;;;;;5065115;28;19927;-77
2022/12/05 03:03:47;;;;;;;;;;;5.50;99.90;;;;;;5064150;28;19924;-77
2022/12/05 03:06:14;;;;;;;;;;;5.50;99.90;;;;;;5066490;28;19927;-77
2022/12/05 03:08:55;;;;;;;;;;;5.50;99.90;;;;;;5062983;28;19925;-77
2022/12/05 03:11:21;;;;;;;;;;;5.50;99.90;;;;;;5065445;28;19928;-76
2022/12/05 03:13:51;;;;;;;;;;;5.60;99.90;;;;;;5066944;28;19921;-76
2022/12/05 03:16:30;;;;;;;;;;;5.60;99.90;;;;;;5064408;28;19921;-76
2022/12/05 03:18:57;;;;;;;;;;;5.60;99.90;;;;;;5062819;28;20085;-76
2022/12/05 03:21:34;;;;;;;;;;;5.50;99.90;;;;;;5064811;28;19932;-76
2022/12/05 03:24:02;;;;;;;;;;;5.50;99.90;;;;;;5061960;28;20025;-76
2022/12/05 03:26:47;;;;;;;;;;;5.60;99.90;;;;;;5066425;28;19920;-76
2022/12/05 03:29:24;;;;;;;;;;;5.60;99.90;;;;;;5062581;28;20326;-77
2022/12/05 03:32:05;;;;;;;;;;;4.40;99.90;;;;;;5064345;28;19921;-77
2022/12/05 03:34:36;;;;;;;;;;;5.50;99.90;;;;;;5063942;28;20371;-78
2022/12/05 03:37:09;;;;;;;;;;;5.50;99.90;;;;;;5062360;28;19917;-78
2022/12/05 03:39:36;;;;;;;;;;;5.40;99.90;;;;;;5063190;28;20341;-78
2022/12/05 03:42:11;;;;;;;;;;;5.80;99.90;;;;;;5065039;28;19932;-77
2022/12/05 03:44:45;;;;;;;;;;;5.50;99.90;;;;;;5062912;28;19921;-77
2022/12/05 03:47:16;;;;;;;;;;;5.50;99.90;;;;;;5061784;28;19924;-78
2022/12/05 03:49:50;;;;;;;;;;;5.50;99.90;;;;;;5064627;28;19927;-77
2022/12/05 03:52:21;;;;;;;;;;;5.50;99.90;;;;;;5064673;28;20402;-77
2022/12/05 03:54:59;;;;;;;;;;;5.50;99.90;;;;;;5063867;28;19920;-77
2022/12/05 03:57:37;;;;;;;;;;;5.50;99.90;;;;;;5065446;28;19921;-77
2022/12/05 04:00:22;;;;;;;;;;;5.50;99.90;;;;;;5062980;28;19925;-77
2022/12/05 04:02:53;;;;;;;;;;;5.50;99.90;;;;;;5059959;28;19920;-76
2022/12/05 04:05:36;;;;;;;;;;;5.60;99.90;;;;;;5062601;28;19952;-77
2022/12/05 04:08:06;;;;;;;;;;;5.60;99.90;;;;;;5063023;28;19920;-77
2022/12/05 04:10:47;;;;;;;;;;;5.60;99.90;;;;;;5065122;28;19971;-77
2022/12/05 04:13:18;;;;;;;;;;;5.50;99.90;;;;;;5064856;28;20341;-77
2022/12/05 04:18:36;;;;;;;;;;;5.50;99.90;;;;;;5062716;28;20011;-77
2022/12/05 04:25:31;;;;;;;;;;;5.60;99.90;;;;;;5061668;28;19920;-76
2022/12/05 04:26:33;;;;;;;;;;;5.60;99.90;;;;;;5062692;28;20396;-77
2022/12/05 04:29:07;;;;;;;;;;;5.60;99.90;;;;;;5065328;28;20003;-77
2022/12/05 04:31:56;;;;;;;;;;;5.50;99.90;;;;;;5065010;28;20395;-77
2022/12/05 04:34:22;;;;;;;;;;;5.60;99.90;;;;;;5062419;28;19973;-77
2022/12/05 04:36:54;;;;;;;;;;;5.50;99.90;;;;;;5065295;28;20012;-77
2022/12/05 04:39:33;;;;;;;;;;;5.50;99.90;;;;;;5060191;28;19927;-77
2022/12/05 04:42:04;;;;;;;;;;;5.60;99.90;;;;;;5060556;28;19928;-77
2022/12/05 04:44:33;;;;;;;;;;;5.50;99.90;;;;;;5068590;28;19920;-76
2022/12/05 04:47:01;;;;;;;;;;;5.50;99.90;;;;;;5061926;28;19982;-77
2022/12/05 04:49:28;;;;;;;;;;;5.50;99.90;;;;;;5063943;28;19973;-77
2022/12/05 04:51:56;;;;;;;;;;;5.60;99.90;;;;;;5061686;28;19921;-77
2022/12/05 04:54:44;;;;;;;;;;;5.60;99.90;;;;;;5064380;28;20058;-77
2022/12/05 04:57:12;;;;;;;;;;;5.60;99.90;;;;;;5058022;28;20413;-77
2022/12/05 04:59:37;;;;;;;;;;;5.50;99.90;;;;;;5063115;28;20002;-77
2022/12/05 05:02:06;;;;;;;;;;;5.50;99.90;;;;;;5062207;28;19966;-77
2022/12/05 05:04:36;;;;;;;;;;;5.50;99.90;;;;;;5062672;28;19921;-77
2022/12/05 05:07:06;;;;;;;;;;;5.50;99.90;;;;;;5061221;28;20410;-77
2022/12/05 05:09:32;;;;;;;;;;;5.60;99.90;;;;;;5063671;28;20277;-77
2022/12/05 05:11:58;;;;;;;;;;;6.40;99.90;;;;;;5063011;28;20034;-78
2022/12/05 05:14:23;;;;;;;;;;;5.60;99.90;;;;;;5061636;28;19920;-77
2022/12/05 05:16:48;;;;;;;;;;;7.30;99.90;;;;;;5064126;28;20402;-77
2022/12/05 05:19:14;;;;;;;;;;;6.50;99.90;;;;;;5059856;28;19952;-77
2022/12/05 05:21:41;;;;;;;;;;;5.60;99.90;;;;;;5063326;28;19920;-77
2022/12/05 05:24:08;;;;;;;;;;;5.60;99.90;;;;;;5061714;28;19936;-77
2022/12/05 05:26:34;;;;;;;;;;;5.60;99.90;;;;;;5063416;28;19943;-77
2022/12/05 05:29:00;;;;;;;;;;;5.80;99.90;;;;;;5061608;28;20375;-78
2022/12/05 05:31:28;;;;;;;;;;;5.50;99.90;;;;;;5062427;28;19920;-76
2022/12/05 05:33:55;;;;;;;;;;;5.60;99.90;;;;;;5061985;28;19927;-76
2022/12/05 05:36:22;;;;;;;;;;;5.60;99.90;;;;;;5059314;28;19920;-76
2022/12/05 05:38:52;;;;;;;;;;;5.60;99.90;;;;;;5063656;28;20326;-76
2022/12/05 05:41:22;;;;;;;;;;;6.10;99.90;;;;;;5061449;28;19927;-77
2022/12/05 05:43:48;;;;;;;;;;;5.60;99.90;;;;;;5061740;28;20347;-76
2022/12/05 05:46:15;;;;;;;;;;;5.60;99.90;;;;;;5061002;28;19963;-76
2022/12/05 05:48:40;;;;;;;;;;;5.60;99.90;;;;;;5061631;28;20272;-76
2022/12/05 05:51:07;;;;;;;;;;;5.60;99.90;;;;;;5062406;28;19975;-75
2022/12/05 05:53:33;;;;;;;;;;;5.70;99.90;;;;;;5061493;28;20039;-76
2022/12/05 05:56:02;;;;;;;;;;;5.70;99.90;;;;;;5061601;28;20388;-76
2022/12/05 05:58:28;;;;;;;;;;;5.70;99.90;;;;;;5061999;28;19927;-76
2022/12/05 06:00:53;;;;;;;;;;;5.70;99.90;;;;;;5061332;28;19921;-76
2022/12/05 06:03:19;;;;;;;;;;;5.70;99.90;;;;;;5061127;28;19916;-75
2022/12/05 06:05:54;;;;;;;;;;;5.70;99.90;;;;;;5060302;28;20058;-76
2022/12/05 06:08:20;;;;;;;;;;;5.80;99.90;;;;;;5063038;28;20295;-83
2022/12/05 06:10:51;;;;;;;;;;;6.00;99.90;;;;;;5061754;28;19986;-81
2022/12/05 06:13:16;;;;;;;;;;;6.60;99.90;;;;;;5062934;28;20366;-78
2022/12/05 06:15:42;;;;;;;;;;;5.80;99.90;;;;;;5061097;28;19965;-78
2022/12/05 06:18:07;;;;;;;;;;;7.40;99.90;;;;;;5059348;28;19921;-79
2022/12/05 06:20:33;;;;;;;;;;;5.80;99.90;;;;;;5064164;28;20371;-76
2022/12/05 06:22:58;;;;;;;;;;;5.70;99.90;;;;;;5060518;28;20017;-71
2022/12/05 06:25:24;;;;;;;;;;;8.00;99.90;;;;;;5061564;28;19939;-72
2022/12/05 06:27:49;;;;;;;;;;;5.80;99.90;;;;;;5060408;28;19921;-69
2022/12/05 06:30:18;;;;;;;;;;;7.40;99.90;;;;;;5062582;28;19927;-68
2022/12/05 06:32:43;;;;;;;;;;;5.80;99.90;;;;;;5062922;28;19928;-71
2022/12/05 06:35:14;;;;;;;;;;;5.80;99.90;;;;;;5059578;28;19921;-75
2022/12/05 06:37:44;;;;;;;;;;;5.80;99.90;;;;;;5058476;28;19921;-80
2022/12/05 06:40:12;;;;;;;;;;;5.80;99.90;;;;;;5058731;28;19921;-77
2022/12/05 06:42:41;;;;;;;;;;;5.80;99.90;;;;;;5059142;28;20330;-83
2022/12/05 06:45:06;;;;;;;;;;;6.40;99.90;;;;;;5061271;28;19943;-76
2022/12/05 06:47:32;;;;;;;;;;;5.80;99.90;;;;;;5058456;28;20244;-77
2022/12/05 06:49:57;;;;;;;;;;;5.80;99.90;;;;;;5054699;28;19921;-78
2022/12/05 06:52:23;;;;;;;;;;;5.80;99.90;;;;;;5055832;28;19924;-76
2022/12/05 06:54:49;;;;;;;;;;;5.80;99.90;;;;;;5051724;28;19921;-76
2022/12/05 06:57:15;;;;;;;;;;;5.80;99.90;;;;;;5051516;28;19947;-78
2022/12/05 06:59:40;;;;;;;;;;;6.90;99.90;;;;;;5050096;28;19921;-75
2022/12/05 07:02:07;;;;;;;;;;;5.70;99.90;;;;;;5049016;28;20399;-77
2022/12/05 07:04:33;;;;;;;;;;;5.70;99.90;;;;;;5056723;28;20371;-79
2022/12/05 07:07:00;;;;;;;;;;;5.70;99.90;;;;;;5054674;28;19925;-79
2022/12/05 07:09:44;;;;;;;;;;;5.70;99.90;;;;;;5059134;28;19981;-79
2022/12/05 07:12:10;;;;;;;;;;;5.70;99.90;;;;;;5051015;28;20335;-82
2022/12/05 07:14:36;;;;;;;;;;;5.90;99.90;;;;;;5057524;28;20407;-81
2022/12/05 07:17:01;;;;;;;;;;;5.70;99.90;;;;;;5055454;28;20011;-80
2022/12/05 07:19:27;;;;;;;;;;;5.70;99.90;;;;;;5062264;28;19955;-79
2022/12/05 07:21:56;;;;;;;;;;;5.70;99.90;;;;;;5064508;28;19924;-80
2022/12/05 07:24:22;;;;;;;;;;;5.70;99.90;;;;;;5066540;28;20023;-84
2022/12/05 07:26:48;;;;;;;;;;;7.00;99.90;;;;;;5062364;28;20402;-81
2022/12/05 07:29:13;;;;;;;;;;;5.70;99.90;;;;;;5062062;28;19921;-79
2022/12/05 07:31:39;;;;;;;;;;;5.70;99.90;;;;;;5063308;28;19932;-79
2022/12/05 07:34:04;;;;;;;;;;;7.10;99.90;;;;;;5066796;28;19927;-81
2022/12/05 07:36:31;;;;;;;;;;;5.70;99.90;;;;;;5063412;28;19920;-78
2022/12/05 07:38:57;;;;;;;;;;;5.70;99.90;;;;;;5067410;28;19923;-75
2022/12/05 07:41:24;;;;;;;;;;;5.70;99.90;;;;;;5065160;28;19924;-74
2022/12/05 07:43:50;;;;;;;;;;;5.70;99.90;;;;;;5060266;28;19952;-74
2022/12/05 07:46:16;;;;;;;;;;;5.70;99.90;;;;;;5069781;28;19967;-76
2022/12/05 07:48:41;;;;;;;;;;;5.70;99.90;;;;;;5062460;28;19932;-79
2022/12/05 07:51:08;;;;;;;;;;;5.70;99.90;;;;;;5065001;28;19921;-81
2022/12/05 07:53:34;;;;;;;;;;;5.70;99.90;;;;;;5066978;28;20054;-81
2022/12/05 07:56:04;;;;;;;;;;;5.70;99.90;;;;;;5065015;28;20011;-77
2022/12/05 07:58:30;;;;;;;;;;;5.70;99.90;;;;;;5062802;28;20010;-78
2022/12/05 08:00:56;;;;;;;;;;;5.70;99.90;;;;;;5064038;28;20367;-82
2022/12/05 08:03:22;;;;;;;;;;;5.70;99.90;;;;;;5064189;28;19936;-78
2022/12/05 08:05:48;;;;;;;;;;;5.70;99.90;;;;;;5063165;28;20838;-80
2022/12/05 08:08:13;;;;;;;;;;;5.70;99.90;;;;;;5063262;28;19921;-90
2022/12/05 08:10:39;;;;;;;;;;;5.70;99.90;;;;;;5062264;28;19964;-81
2022/12/05 08:13:06;;;;;;;;;;;5.80;99.90;;;;;;5048405;28;20260;-80
2022/12/05 08:15:33;;;;;;;;;;;5.70;99.90;;;;;;5062912;28;19920;-76
2022/12/05 08:17:58;;;;;;;;;;;5.70;99.90;;;;;;5062340;28;19916;-77
2022/12/05 08:20:24;;;;;;;;;;;6.40;99.90;;;;;;5063527;28;19992;-77
2022/12/05 08:22:51;;;;;;;;;;;5.90;99.90;;;;;;5065273;28;19924;-77
2022/12/05 08:25:16;;;;;;;;;;;5.80;99.90;;;;;;5061779;28;19917;-77
2022/12/05 08:27:42;;;;;;;;;;;5.70;99.90;;;;;;5065273;28;19956;-76
2022/12/05 08:30:07;;;;;;;;;;;5.80;99.90;;;;;;5062050;28;20368;-76
2022/12/05 08:32:33;;;;;;;;;;;5.80;99.90;;;;;;5063361;28;20015;-76
2022/12/05 08:34:59;;;;;;;;;;;5.80;99.90;;;;;;5067248;28;19917;-75
2022/12/05 08:37:24;;;;;;;;;;;5.70;99.90;;;;;;5064103;28;20352;-76
2022/12/05 08:39:50;;;;;;;;;;;5.80;99.90;;;;;;5061699;28;19921;-81
2022/12/05 08:42:15;;;;;;;;;;;5.80;99.90;;;;;;5065804;28;19927;-76
2022/12/05 08:44:41;;;;;;;;;;;5.80;99.90;;;;;;5062996;28;20389;-79
2022/12/05 08:47:06;;;;;;;;;;;5.80;99.90;;;;;;5061202;28;19921;-79
2022/12/05 08:49:35;;;;;;;;;;;5.80;99.90;;;;;;5064360;28;19936;-76
2022/12/05 08:52:00;;;;;;;;;;;5.80;99.90;;;;;;5061432;28;19921;-77
2022/12/05 08:54:26;;;;;;;;;;;5.90;99.90;;;;;;5062690;28;19926;-76
2022/12/05 08:56:51;;;;;;;;;;;5.90;99.90;;;;;;5061539;28;20004;-76
2022/12/05 08:59:17;;;;;;;;;;;6.90;99.90;;;;;;5061618;28;20283;-76
2022/12/05 09:01:43;;;;;;;;;;;5.90;99.90;;;;;;5062123;28;20613;-75
2022/12/05 09:04:11;;;;;;;;;;;5.80;99.90;;;;;;5066425;28;19927;-74
2022/12/05 09:06:38;;;;;;;;;;;5.90;99.90;;;;;;5059206;28;19928;-78
2022/12/05 09:09:05;;;;;;;;;;;5.90;99.90;;;;;;5060202;28;19924;-80
2022/12/05 09:11:32;;;;;;;;;;;5.90;99.90;;;;;;5061806;28;19920;-79
2022/12/05 09:13:58;;;;;;;;;;;7.00;99.90;;;;;;5065272;28;20007;-81
2022/12/05 09:16:28;;;;;;;;;;;6.80;99.90;;;;;;5062415;28;20402;-87
2022/12/05 09:18:53;;;;;;;;;;;6.00;99.90;;;;;;5063254;28;19932;-81
2022/12/05 09:21:27;;;;;;;;;;;6.00;99.90;;;;;;5066063;28;19917;-77
2022/12/05 09:23:52;;;;;;;;;;;6.10;99.90;;;;;;5062353;28;19920;-78
2022/12/05 09:26:19;;;;;;;;;;;6.00;99.90;;;;;;5062788;28;19920;-72
2022/12/05 09:28:45;;;;;;;;;;;6.10;99.90;;;;;;5062517;28;19928;-74
2022/12/05 09:31:12;;;;;;;;;;;6.10;99.90;;;;;;5061802;28;19920;-76
2022/12/05 09:33:38;;;;;;;;;;;6.10;99.90;;;;;;5062768;28;19931;-75
2022/12/05 09:36:04;;;;;;;;;;;6.10;99.90;;;;;;5059437;28;19920;-75
2022/12/05 09:38:30;;;;;;;;;;;6.10;99.90;;;;;;5060563;28;19928;-78
2022/12/05 09:41:08;;;;;;;;;;;6.10;99.90;;;;;;5062603;28;20034;-77
2022/12/05 09:43:47;;;;;;;;;;;6.10;99.90;;;;;;5061000;28;19924;-78
2022/12/05 09:46:31;;;;;;;;;;;6.10;99.90;;;;;;5060155;28;19927;-78
2022/12/05 09:48:57;;;;;;;;;;;6.20;99.90;;;;;;5059939;28;19927;-79
2022/12/05 09:51:23;;;;;;;;;;;6.20;99.90;;;;;;5062131;28;19928;-78
2022/12/05 09:53:49;;;;;;;;;;;7.10;99.90;;;;;;5060635;28;20363;-77
2022/12/05 09:56:24;;;;;;;;;;;6.20;99.90;;;;;;5061687;28;19952;-78
2022/12/05 09:58:51;;;;;;;;;;;6.20;99.90;;;;;;5061452;28;19920;-78
2022/12/05 10:01:37;;;;;;;;;;;6.30;99.90;;;;;;5061812;28;19966;-78
2022/12/05 10:04:08;;;;;;;;;;;6.30;99.90;;;;;;5058765;28;19928;-78
2022/12/05 10:06:40;;;;;;;;;;;6.20;99.90;;;;;;5064108;28;20317;-77
2022/12/05 10:09:13;;;;;;;;;;;6.20;99.90;;;;;;5063581;28;20689;-78
2022/12/05 10:11:44;;;;;;;;;;;6.30;99.90;;;;;;5059979;28;19925;-78
2022/12/05 10:14:25;;;;;;;;;;;6.30;99.90;;;;;;5062180;28;19967;-78
2022/12/05 10:16:53;;;;;;;;;;;6.30;99.90;;;;;;5061363;28;19928;-78
2022/12/05 10:19:22;;;;;;;;;;;6.30;99.90;;;;;;5059917;28;20295;-78
2022/12/05 10:21:57;;;;;;;;;;;6.30;99.90;;;;;;5060155;28;19921;-78
2022/12/05 10:24:37;;;;;;;;;;;6.80;99.90;;;;;;5059402;28;20364;-78
2022/12/05 10:27:04;;;;;;;;;;;6.30;99.90;;;;;;5060940;28;19924;-78
2022/12/05 10:29:32;;;;;;;;;;;6.30;99.90;;;;;;5062209;28;19921;-78
2022/12/05 10:32:06;;;;;;;;;;;6.30;99.90;;;;;;5059385;28;19927;-78
2022/12/05 10:34:39;;;;;;;;;;;6.30;99.90;;;;;;5063524;28;19927;-76
2022/12/05 10:37:16;;;;;;;;;;;6.40;99.90;;;;;;5078881;28;19967;-75
2022/12/05 10:39:42;;;;;;;;;;;6.30;99.90;;;;;;5060601;28;19927;-76
2022/12/05 10:42:18;;;;;;;;;;;6.40;99.90;;;;;;5060811;28;20007;-76
2022/12/05 10:44:44;;;;;;;;;;;6.40;99.90;;;;;;5062350;28;19931;-76
2022/12/05 10:47:10;;;;;;;;;;;6.40;99.90;;;;;;5060634;28;19921;-79
2022/12/05 10:49:37;;;;;;;;;;;6.50;99.90;;;;;;5060755;28;19920;-78
2022/12/05 10:52:02;;;;;;;;;;;6.50;99.90;;;;;;5065086;28;19920;-85
2022/12/05 10:54:29;;;;;;;;;;;6.50;99.90;;;;;;5066675;28;19982;-77
2022/12/05 10:56:55;;;;;;;;;;;6.50;99.90;;;;;;5066094;28;19979;-78
2022/12/05 10:59:22;;;;;;;;;;;7.20;99.90;;;;;;5066256;28;19971;-77
2022/12/05 11:01:50;;;;;;;;;;;6.50;99.90;;;;;;5066500;28;19999;-79
2022/12/05 11:04:25;;;;;;;;;;;6.50;99.90;;;;;;5071235;28;19927;-80
2022/12/05 11:06:52;;;;;;;;;;;6.50;99.90;;;;;;5062653;28;19920;-79
2022/12/05 11:09:22;;;;;;;;;;;6.60;99.90;;;;;;5066955;28;19920;-78
2022/12/05 11:12:00;;;;;;;;;;;6.60;99.90;;;;;;5067306;28;19924;-79
2022/12/05 11:14:26;;;;;;;;;;;6.50;99.90;;;;;;5064288;28;19924;-77
2022/12/05 11:16:53;;;;;;;;;;;6.60;99.90;;;;;;5066521;28;19921;-80
2022/12/05 11:19:24;;;;;;;;;;;6.80;99.90;;;;;;5062686;28;19924;-78
2022/12/05 11:21:49;;;;;;;;;;;6.70;99.90;;;;;;5063161;28;20391;-77
2022/12/05 11:24:26;;;;;;;;;;;7.20;99.90;;;;;;5066138;28;19964;-78
2022/12/05 11:26:52;;;;;;;;;;;6.70;99.90;;;;;;5061908;28;19929;-77
2022/12/05 11:29:27;;;;;;;;;;;6.70;99.90;;;;;;5065187;28;19973;-80
2022/12/05 11:31:53;;;;;;;;;;;6.80;99.90;;;;;;5063881;28;19928;-79
2022/12/05 11:34:38;;;;;;;;;;;6.80;99.90;;;;;;5061733;28;19928;-86
2022/12/05 11:37:10;;;;;;;;;;;8.30;99.90;;;;;;5063844;28;19920;-85
2022/12/05 11:39:36;;;;;;;;;;;7.30;99.90;;;;;;5060333;28;20057;-82
2022/12/05 11:42:07;;;;;;;;;;;6.80;99.90;;;;;;5060622;28;20011;-81
2022/12/05 11:44:35;;;;;;;;;;;6.80;99.90;;;;;;5066140;28;19932;-80
2022/12/05 11:47:13;;;;;;;;;;;6.90;99.90;;;;;;5062367;28;19929;-82
2022/12/05 11:49:39;;;;;;;;;;;6.80;99.90;;;;;;5061380;28;19924;-85
2022/12/05 11:52:18;;;;;;;;;;;6.80;99.90;;;;;;5065293;28;19928;-78
2022/12/05 11:54:53;;;;;;;;;;;6.90;99.90;;;;;;5078629;28;19920;-76
2022/12/05 11:57:30;;;;;;;;;;;6.90;99.90;;;;;;5065220;28;19927;-76
2022/12/05 12:00:06;;;;;;;;;;;6.80;99.90;;;;;;5064099;28;19924;-74
2022/12/05 12:02:53;;;;;;;;;;;6.90;99.90;;;;;;5062186;28;19928;-74
2022/12/05 12:05:28;;;;;;;;;;;6.80;99.90;;;;;;5062777;28;19924;-74
2022/12/05 12:07:58;;;;;;;;;;;6.80;99.90;;;;;;5066492;28;19931;-74
2022/12/05 12:10:30;;;;;;;;;;;6.80;99.90;;;;;;5063151;28;20356;-79
2022/12/05 12:13:28;;;;;;;;;;;6.80;99.90;;;;;;5064283;28;19928;-79
2022/12/05 12:16:12;;;;;;;;;;;6.90;99.90;;;;;;5064266;28;19924;-79
2022/12/05 12:18:46;;;;;;;;;;;6.80;99.90;;;;;;5062551;28;20331;-81
2022/12/05 12:21:18;;;;;;;;;;;6.80;99.90;;;;;;5063963;28;19921;-79
2022/12/05 12:23:43;;;;;;;;;;;6.80;99.90;;;;;;5063098;28;19924;-78
2022/12/05 12:26:09;;;;;;;;;;;6.80;99.90;;;;;;5062494;28;20360;-80
2022/12/05 12:28:45;;;;;;;;;;;6.80;99.90;;;;;;5065100;28;19916;-80
2022/12/05 12:31:32;;;;;;;;;;;6.90;99.90;;;;;;5062087;28;20372;-81
2022/12/05 12:34:20;;;;;;;;;;;6.80;99.90;;;;;;5062317;28;19944;-81
2022/12/05 12:36:50;;;;;;;;;;;6.80;99.90;;;;;;5058519;28;19920;-81
2022/12/05 12:39:15;;;;;;;;;;;6.80;99.90;;;;;;5061731;28;19921;-80
2022/12/05 12:41:46;;;;;;;;;;;7.90;99.90;;;;;;5063374;28;19928;-80
2022/12/05 12:44:38;;;;;;;;;;;6.70;99.90;;;;;;5062276;28;19924;-78
2022/12/05 12:47:10;;;;;;;;;;;6.70;99.90;;;;;;5045196;28;19924;-79
2022/12/05 12:49:41;;;;;;;;;;;6.70;99.90;;;;;;5062408;28;19920;-79
2022/12/05 12:52:12;;;;;;;;;;;6.60;99.90;;;;;;5063257;28;20390;-80
2022/12/05 12:54:49;;;;;;;;;;;6.60;99.90;;;;;;5062436;28;19927;-79
2022/12/05 12:57:19;;;;;;;;;;;6.50;99.90;;;;;;5063854;28;19942;-79
2022/12/05 12:59:47;;;;;;;;;;;6.50;99.90;;;;;;5062521;28;19920;-79
2022/12/05 13:02:16;;;;;;;;;;;6.50;99.90;;;;;;5062952;28;19995;-79
2022/12/05 13:04:57;;;;;;;;;;;6.40;99.90;;;;;;5063159;28;19920;-78
2022/12/05 13:07:28;;;;;;;;;;;6.40;99.90;;;;;;5064354;28;20303;-79
2022/12/05 13:10:03;;;;;;;;;;;6.40;99.90;;;;;;5061160;28;20316;-80
2022/12/05 13:12:32;;;;;;;;;;;6.40;99.90;;;;;;5063721;28;19982;-80
2022/12/05 13:14:59;;;;;;;;;;;6.40;99.90;;;;;;5060955;28;19925;-80
2022/12/05 13:17:25;;;;;;;;;;;6.30;99.90;;;;;;5061643;28;20292;-80
2022/12/05 13:19:51;;;;;;;;;;;6.30;99.90;;;;;;5063502;28;19927;-80
2022/12/05 13:22:18;;;;;;;;;;;6.30;99.90;;;;;;5062001;28;19978;-80
2022/12/05 13:24:44;;;;;;;;;;;6.30;99.90;;;;;;5062634;28;20299;-80
2022/12/05 13:27:20;;;;;;;;;;;6.70;99.90;;;;;;5061926;28;19921;-80
2022/12/05 13:30:04;;;;;;;;;;;6.20;99.90;;;;;;5063676;28;19936;-80
2022/12/05 13:32:31;;;;;;;;;;;6.20;99.90;;;;;;5061725;28;20288;-80
2022/12/05 13:35:07;;;;;;;;;;;7.10;99.90;;;;;;5062735;28;19924;-80
2022/12/05 13:43:10;;;;;;;;;;;6.20;99.90;;;;;;5062700;28;19924;-80
2022/12/05 13:45:36;;;;;;;;;;;6.20;99.90;;;;;;5062342;28;19921;-80
2022/12/05 13:48:22;;;;;;;;;;;6.20;99.90;;;;;;5060052;28;19928;-80
2022/12/05 13:50:58;;;;;;;;;;;6.20;99.90;;;;;;5060643;28;19920;-80
2022/12/05 13:53:39;;;;;;;;;;;6.20;99.90;;;;;;5061117;28;19946;-80
2022/12/05 13:56:05;;;;;;;;;;;6.20;99.90;;;;;;5058958;28;19920;-80
2022/12/05 13:58:30;;;;;;;;;;;6.10;99.90;;;;;;5064291;28;19982;-81
2022/12/05 14:01:17;;;;;;;;;;;6.10;99.90;;;;;;5062809;28;19920;-81
2022/12/05 14:03:46;;;;;;;;;;;6.10;99.90;;;;;;5061571;28;19920;-80
2022/12/05 14:06:31;;;;;;;;;;;6.10;99.90;;;;;;5062501;28;19970;-80
2022/12/05 14:08:57;;;;;;;;;;;6.10;99.90;;;;;;5058275;28;19953;-81
2022/12/05 14:11:22;;;;;;;;;;;6.20;99.90;;;;;;5060852;28;19921;-79
2022/12/05 14:13:48;;;;;;;;;;;6.60;99.90;;;;;;5061455;28;19921;-76
2022/12/05 14:16:23;;;;;;;;;;;6.30;99.90;;;;;;5059965;28;20016;-82
2022/12/05 14:19:18;;;;;;;;;;;6.10;99.90;;;;;;5055264;28;19954;-85
2022/12/05 14:21:53;;;;;;;;;;;6.10;99.90;;;;;;5055784;28;19975;-86
2022/12/05 14:24:37;;;;;;;;;;;6.00;99.90;;;;;;5058040;28;19921;-88
2022/12/05 14:27:21;;;;;;;;;;;6.00;99.90;;;;;;5062345;28;19920;-88
2022/12/05 14:29:59;;;;;;;;;;;6.00;99.90;;;;;;5059085;28;19927;-81
2022/12/05 14:32:28;;;;;;;;;;;6.10;99.90;;;;;;5081778;28;19920;-81
2022/12/05 14:34:59;;;;;;;;;;;6.00;99.90;;;;;;5058706;28;19929;-79
2022/12/05 14:37:36;;;;;;;;;;;6.10;99.90;;;;;;5058413;28;19920;-85
2022/12/05 14:40:16;;;;;;;;;;;6.00;99.90;;;;;;5061275;28;19921;-85
2022/12/05 14:42:49;;;;;;;;;;;6.00;99.90;;;;;;5060398;28;19921;-84
2022/12/05 14:45:33;;;;;;;;;;;6.00;99.90;;;;;;5059173;28;19925;-85
2022/12/05 14:48:00;;;;;;;;;;;6.00;99.90;;;;;;5064492;28;20368;-89
2022/12/05 14:50:32;;;;;;;;;;;6.10;99.90;;;;;;5060493;28;19921;-82
2022/12/05 14:53:19;;;;;;;;;;;6.00;99.90;;;;;;5058989;28;20364;-89
2022/12/05 14:55:49;;;;;;;;;;;6.00;99.90;;;;;;5062350;28;19928;-90
2022/12/05 14:58:25;;;;;;;;;;;6.00;99.90;;;;;;5061313;28;19970;-88